createdAt,value
2018-10-05T00:00:25.084Z,7.60
2018-10-05T00:02:53.578Z,7.80
2018-10-05T00:05:22.119Z,7.70
2018-10-05T00:07:50.783Z,7.50
2018-10-05T00:10:19.526Z,7.60
2018-10-05T00:12:48.114Z,7.60
2018-10-05T00:15:16.670Z,7.70
2018-10-05T00:17:45.323Z,7.90
2018-10-05T00:20:13.996Z,7.90
2018-10-05T00:22:42.629Z,7.90
2018-10-05T00:25:11.119Z,7.80
2018-10-05T00:27:39.870Z,7.90
2018-10-05T00:30:08.481Z,7.90
2018-10-05T00:32:36.985Z,7.90
2018-10-05T00:35:06.968Z,7.90
2018-10-05T00:37:35.560Z,8.00
2018-10-05T00:40:04.358Z,7.90
2018-10-05T00:42:32.837Z,7.60
2018-10-05T00:45:01.378Z,7.60
2018-10-05T00:47:30.044Z,7.40
2018-10-05T00:49:58.727Z,7.50
2018-10-05T00:52:27.433Z,7.50
2018-10-05T00:54:55.918Z,7.60
2018-10-05T00:57:24.571Z,7.70
2018-10-05T00:59:53.126Z,7.80
2018-10-05T01:02:21.831Z,7.70
2018-10-05T01:04:50.726Z,7.70
2018-10-05T01:07:19.285Z,7.70
2018-10-05T01:09:47.777Z,7.70
2018-10-05T01:12:16.318Z,7.30
2018-10-05T01:14:44.877Z,7.30
2018-10-05T01:17:13.391Z,7.30
2018-10-05T01:19:42.078Z,7.40
2018-10-05T01:22:10.605Z,7.30
2018-10-05T01:24:39.145Z,7.40
2018-10-05T01:27:09.629Z,7.40
2018-10-05T01:29:38.417Z,7.40
2018-10-05T01:32:07.068Z,7.30
2018-10-05T01:34:35.604Z,7.20
2018-10-05T01:37:04.238Z,7.30
2018-10-05T01:39:32.816Z,7.40
2018-10-05T01:42:01.354Z,7.40
2018-10-05T01:44:30.050Z,7.50
2018-10-05T01:46:58.797Z,7.60
2018-10-05T01:49:27.420Z,7.60
2018-10-05T01:51:55.956Z,7.70
2018-10-05T01:54:25.177Z,7.80
2018-10-05T01:56:53.757Z,7.80
2018-10-05T01:59:22.273Z,7.80
2018-10-05T02:01:50.774Z,7.80
2018-10-05T02:04:19.568Z,7.80
2018-10-05T02:06:48.119Z,7.70
2018-10-05T02:09:16.691Z,7.70
2018-10-05T02:11:45.201Z,7.70
2018-10-05T02:14:13.721Z,7.80
2018-10-05T02:16:42.497Z,7.80
2018-10-05T02:19:11.134Z,7.80
2018-10-05T02:21:39.622Z,7.80
2018-10-05T02:24:08.259Z,7.50
2018-10-05T02:26:36.957Z,7.30
2018-10-05T02:29:05.593Z,7.20
2018-10-05T02:31:34.310Z,7.10
2018-10-05T02:34:02.823Z,6.90
2018-10-05T02:36:31.332Z,7.00
2018-10-05T02:38:59.936Z,7.10
2018-10-05T02:41:28.488Z,7.30
2018-10-05T02:43:56.984Z,7.40
2018-10-05T02:46:25.574Z,7.40
2018-10-05T02:48:54.360Z,7.50
2018-10-05T02:51:22.892Z,7.30
2018-10-05T02:53:51.416Z,7.10
2018-10-05T02:56:19.974Z,7.10
2018-10-05T02:58:48.732Z,7.00
2018-10-05T03:01:28.625Z,6.90
2018-10-05T03:03:57.377Z,6.90
2018-10-05T03:06:26.054Z,7.10
2018-10-05T03:08:55.017Z,7.00
2018-10-05T03:11:23.587Z,7.00
2018-10-05T03:13:52.292Z,7.10
2018-10-05T03:16:21.003Z,7.20
2018-10-05T03:18:49.639Z,7.20
2018-10-05T03:21:18.321Z,7.00
2018-10-05T03:23:47.020Z,7.00
2018-10-05T03:26:15.860Z,6.90
2018-10-05T03:28:44.701Z,6.90
2018-10-05T03:31:13.181Z,6.80
2018-10-05T03:33:41.756Z,6.80
2018-10-05T03:36:12.348Z,6.90
2018-10-05T03:38:40.842Z,6.80
2018-10-05T03:41:09.410Z,6.90
2018-10-05T03:43:37.941Z,6.90
2018-10-05T03:46:06.730Z,6.90
2018-10-05T03:48:35.282Z,6.90
2018-10-05T03:51:04.892Z,6.80
2018-10-05T03:53:33.385Z,6.60
2018-10-05T03:56:01.874Z,6.50
2018-10-05T03:58:30.439Z,6.60
2018-10-05T04:00:58.939Z,6.60
2018-10-05T04:03:27.537Z,6.60
2018-10-05T04:05:56.091Z,6.60
2018-10-05T04:08:24.679Z,6.60
2018-10-05T04:10:53.432Z,6.50
2018-10-05T04:13:21.965Z,6.40
2018-10-05T04:15:50.473Z,6.30
2018-10-05T04:18:18.985Z,6.30
2018-10-05T04:20:47.509Z,6.30
2018-10-05T04:23:16.216Z,6.30
2018-10-05T04:25:44.728Z,6.30
2018-10-05T04:28:13.530Z,6.50
2018-10-05T04:30:42.031Z,6.50
2018-10-05T04:33:10.505Z,6.60
2018-10-05T04:35:39.052Z,6.60
2018-10-05T04:38:07.601Z,6.70
2018-10-05T04:40:36.127Z,6.70
2018-10-05T04:43:04.756Z,6.70
2018-10-05T04:45:33.306Z,6.80
2018-10-05T04:48:02.273Z,6.80
2018-10-05T04:50:30.855Z,6.80
2018-10-05T04:52:59.371Z,6.80
2018-10-05T04:55:28.109Z,6.70
2018-10-05T04:57:56.626Z,6.60
2018-10-05T05:00:25.317Z,6.50
2018-10-05T05:02:54.083Z,6.40
2018-10-05T05:05:24.636Z,6.40
2018-10-05T05:07:53.483Z,6.50
2018-10-05T05:10:22.215Z,6.40
2018-10-05T05:12:50.783Z,6.40
2018-10-05T05:15:19.353Z,6.30
2018-10-05T05:17:47.915Z,6.30
2018-10-05T05:20:16.463Z,6.30
2018-10-05T05:22:44.996Z,6.20
2018-10-05T05:25:13.768Z,6.20
2018-10-05T05:27:42.410Z,6.10
2018-10-05T05:30:11.138Z,6.00
2018-10-05T05:32:39.691Z,5.90
2018-10-05T05:35:08.250Z,5.80
2018-10-05T05:37:36.757Z,5.70
2018-10-05T05:40:05.845Z,5.70
2018-10-05T05:42:34.566Z,5.80
2018-10-05T05:45:04.415Z,5.80
2018-10-05T05:47:34.990Z,5.80
2018-10-05T05:50:03.578Z,5.70
2018-10-05T05:52:32.062Z,5.70
2018-10-05T05:55:00.738Z,5.80
2018-10-05T05:57:29.439Z,6.00
2018-10-05T06:00:15.124Z,6.00
2018-10-05T06:02:44.110Z,6.10
2018-10-05T06:05:12.679Z,6.20
2018-10-05T06:07:41.272Z,6.10
2018-10-05T06:10:09.814Z,6.10
2018-10-05T06:12:38.504Z,6.10
2018-10-05T06:15:07.664Z,6.10
2018-10-05T06:17:36.217Z,6.00
2018-10-05T06:20:05.228Z,6.00
2018-10-05T06:22:33.965Z,6.00
2018-10-05T06:25:02.568Z,6.10
2018-10-05T06:27:31.318Z,6.10
2018-10-05T06:29:59.958Z,6.10
2018-10-05T06:32:28.461Z,6.10
2018-10-05T06:34:56.964Z,6.00
2018-10-05T06:37:29.858Z,6.10
2018-10-05T06:39:59.306Z,6.00
2018-10-05T06:42:28.616Z,6.10
2018-10-05T06:44:57.714Z,6.10
2018-10-05T06:47:26.693Z,6.10
2018-10-05T06:49:55.554Z,6.20
2018-10-05T06:52:24.045Z,6.40
2018-10-05T06:54:52.604Z,6.60
2018-10-05T06:57:21.208Z,6.70
2018-10-05T06:59:49.773Z,6.90
2018-10-05T07:02:18.267Z,6.90
2018-10-05T07:04:46.954Z,7.00
2018-10-05T07:07:15.562Z,7.00
2018-10-05T07:09:44.135Z,7.10
2018-10-05T07:12:12.693Z,7.30
2018-10-05T07:14:41.347Z,7.30
2018-10-05T07:17:10.028Z,7.30
2018-10-05T07:19:38.701Z,7.40
2018-10-05T07:22:07.421Z,7.50
2018-10-05T07:24:35.953Z,7.50
2018-10-05T07:27:12.652Z,7.60
2018-10-05T07:29:41.416Z,7.60
2018-10-05T07:32:10.054Z,7.80
2018-10-05T07:34:38.803Z,7.90
2018-10-05T07:37:07.639Z,8.00
2018-10-05T07:39:36.236Z,8.00
2018-10-05T07:42:04.760Z,8.10
2018-10-05T07:44:33.492Z,8.20
2018-10-05T07:47:02.090Z,8.30
2018-10-05T07:49:30.579Z,8.40
2018-10-05T07:51:59.111Z,8.60
2018-10-05T07:54:27.590Z,8.80
2018-10-05T07:56:56.214Z,9.10
2018-10-05T07:59:24.687Z,9.20
2018-10-05T08:01:53.247Z,9.40
2018-10-05T08:04:21.843Z,9.60
2018-10-05T08:06:50.433Z,9.80
2018-10-05T08:09:19.007Z,10.00
2018-10-05T08:11:47.509Z,10.00
2018-10-05T08:14:16.060Z,10.20
2018-10-05T08:16:44.591Z,10.30
2018-10-05T08:19:13.306Z,10.60
2018-10-05T08:21:41.977Z,10.70
2018-10-05T08:24:10.629Z,10.90
2018-10-05T08:26:39.143Z,10.90
2018-10-05T08:29:07.774Z,11.00
2018-10-05T08:31:36.331Z,11.40
2018-10-05T08:34:04.878Z,11.50
2018-10-05T08:36:33.652Z,11.60
2018-10-05T08:39:02.298Z,11.80
2018-10-05T08:41:30.914Z,11.90
2018-10-05T08:43:59.636Z,12.20
2018-10-05T08:46:28.319Z,12.30
2018-10-05T08:48:56.896Z,12.40
2018-10-05T08:51:25.442Z,12.60
2018-10-05T08:53:54.065Z,12.90
2018-10-05T08:56:22.798Z,12.90
2018-10-05T08:58:51.564Z,12.80
2018-10-05T09:01:20.160Z,12.90
2018-10-05T09:03:48.874Z,13.30
2018-10-05T09:06:17.459Z,13.30
2018-10-05T09:08:45.978Z,13.70
2018-10-05T09:11:14.588Z,13.80
2018-10-05T09:13:43.200Z,13.80
2018-10-05T09:16:11.895Z,14.00
2018-10-05T09:18:40.690Z,14.20
2018-10-05T09:21:09.557Z,14.50
2018-10-05T09:23:38.129Z,14.40
2018-10-05T09:26:06.756Z,14.80
2018-10-05T09:28:35.348Z,14.60
2018-10-05T09:31:03.916Z,14.90
2018-10-05T09:33:32.440Z,14.90
2018-10-05T09:36:01.008Z,15.10
2018-10-05T09:38:29.681Z,15.60
2018-10-05T09:40:58.230Z,15.40
2018-10-05T09:43:26.970Z,15.80
2018-10-05T09:45:55.603Z,15.90
2018-10-05T09:48:24.110Z,15.90
2018-10-05T09:50:52.655Z,15.80
2018-10-05T09:53:21.437Z,15.70
2018-10-05T09:55:50.009Z,16.00
2018-10-05T09:58:18.589Z,16.40
2018-10-05T10:00:52.452Z,16.50
2018-10-05T10:03:26.479Z,16.40
2018-10-05T10:05:55.096Z,16.70
2018-10-05T10:08:23.766Z,16.80
2018-10-05T10:10:52.322Z,17.00
2018-10-05T10:13:21.340Z,17.20
2018-10-05T10:15:49.977Z,17.00
2018-10-05T10:18:18.551Z,17.10
2018-10-05T10:20:47.145Z,17.20
2018-10-05T10:23:16.992Z,17.70
2018-10-05T10:25:45.506Z,17.60
2018-10-05T10:28:14.194Z,17.70
2018-10-05T10:30:42.740Z,17.60
2018-10-05T10:33:11.337Z,17.50
2018-10-05T10:35:39.933Z,18.10
2018-10-05T10:38:08.633Z,17.80
2018-10-05T10:40:37.130Z,18.20
2018-10-05T10:43:06.244Z,18.70
2018-10-05T10:45:34.921Z,19.00
2018-10-05T10:48:03.633Z,19.40
2018-10-05T10:50:32.101Z,19.80
2018-10-05T10:53:00.681Z,19.80
2018-10-05T10:55:29.287Z,19.90
2018-10-05T10:57:57.753Z,19.40
2018-10-05T11:00:26.400Z,19.40
2018-10-05T11:02:55.054Z,19.30
2018-10-05T11:05:23.565Z,19.20
2018-10-05T11:07:52.140Z,19.40
2018-10-05T11:10:20.673Z,19.90
2018-10-05T11:12:49.226Z,19.80
2018-10-05T11:15:17.845Z,19.90
2018-10-05T11:17:46.317Z,19.70
2018-10-05T11:20:14.855Z,20.00
2018-10-05T11:22:43.427Z,19.90
2018-10-05T11:25:12.198Z,19.80
2018-10-05T11:27:40.927Z,19.80
2018-10-05T11:30:09.843Z,19.70
2018-10-05T11:32:38.577Z,20.20
2018-10-05T11:35:07.671Z,20.50
2018-10-05T11:37:36.340Z,20.50
2018-10-05T11:40:05.156Z,20.80
2018-10-05T11:42:33.678Z,21.30
2018-10-05T11:45:02.717Z,21.30
2018-10-05T11:47:31.310Z,22.00
2018-10-05T11:50:00.011Z,22.60
2018-10-05T11:52:28.629Z,22.60
2018-10-05T11:54:57.301Z,22.70
2018-10-05T11:57:25.937Z,22.00
2018-10-05T11:59:54.548Z,22.60
2018-10-05T12:02:23.032Z,23.20
2018-10-05T12:04:51.733Z,22.70
2018-10-05T12:07:20.355Z,22.50
2018-10-05T12:09:49.012Z,22.60
2018-10-05T12:12:17.778Z,22.80
2018-10-05T12:14:46.585Z,22.90
2018-10-05T12:17:15.285Z,22.30
2018-10-05T12:19:44.087Z,22.30
2018-10-05T12:22:12.653Z,22.60
2018-10-05T12:24:41.238Z,22.30
2018-10-05T12:27:13.693Z,22.40
2018-10-05T12:29:42.477Z,22.50
2018-10-05T12:32:11.030Z,22.60
2018-10-05T12:34:39.710Z,22.20
2018-10-05T12:37:08.240Z,22.30
2018-10-05T12:39:36.809Z,22.00
2018-10-05T12:42:05.602Z,22.20
2018-10-05T12:44:34.169Z,22.00
2018-10-05T12:47:02.766Z,21.90
2018-10-05T12:49:31.513Z,21.90
2018-10-05T12:52:00.443Z,22.00
2018-10-05T12:54:29.121Z,22.10
2018-10-05T12:56:58.249Z,22.20
2018-10-05T12:59:26.768Z,22.20
2018-10-05T13:01:55.386Z,22.40
2018-10-05T13:04:23.980Z,22.40
2018-10-05T13:06:52.582Z,21.90
2018-10-05T13:09:21.367Z,22.40
2018-10-05T13:11:50.054Z,22.00
2018-10-05T13:14:18.728Z,22.10
2018-10-05T13:16:47.522Z,22.00
2018-10-05T13:19:15.998Z,22.10
2018-10-05T13:21:44.637Z,22.10
2018-10-05T13:24:13.585Z,21.80
2018-10-05T13:26:42.383Z,22.30
2018-10-05T13:29:10.992Z,22.40
2018-10-05T13:31:39.871Z,22.30
2018-10-05T13:34:08.483Z,22.50
2018-10-05T13:36:37.007Z,22.20
2018-10-05T13:39:08.659Z,22.40
2018-10-05T13:41:37.386Z,22.30
2018-10-05T13:44:06.108Z,22.40
2018-10-05T13:46:35.310Z,22.10
2018-10-05T13:49:05.220Z,22.20
2018-10-05T13:51:34.751Z,22.40
2018-10-05T13:54:08.230Z,22.20
2018-10-05T13:56:36.702Z,22.20
2018-10-05T13:59:06.071Z,22.40
2018-10-05T14:01:35.039Z,22.50
2018-10-05T14:04:03.920Z,22.20
2018-10-05T14:06:32.909Z,22.10
2018-10-05T14:09:01.947Z,22.30
2018-10-05T14:11:30.601Z,22.10
2018-10-05T14:13:59.435Z,22.10
2018-10-05T14:16:28.178Z,22.00
2018-10-05T14:18:56.719Z,22.10
2018-10-05T14:21:25.563Z,21.90
2018-10-05T14:23:54.304Z,22.00
2018-10-05T14:26:23.113Z,22.10
2018-10-05T14:28:51.632Z,22.00
2018-10-05T14:31:20.236Z,21.90
2018-10-05T14:33:49.007Z,21.80
2018-10-05T14:36:17.682Z,21.80
2018-10-05T14:38:46.482Z,21.80
2018-10-05T14:41:15.072Z,21.80
2018-10-05T14:43:44.002Z,21.70
2018-10-05T14:46:12.619Z,21.60
2018-10-05T14:48:41.227Z,21.90
2018-10-05T14:51:10.377Z,21.90
2018-10-05T14:53:38.927Z,21.90
2018-10-05T14:56:07.467Z,21.90
2018-10-05T14:58:36.215Z,22.10
2018-10-05T15:01:11.467Z,22.00
2018-10-05T15:03:40.125Z,22.00
2018-10-05T15:06:08.976Z,22.00
2018-10-05T15:08:37.492Z,22.00
2018-10-05T15:11:06.023Z,22.00
2018-10-05T15:13:34.623Z,21.90
2018-10-05T15:16:03.229Z,21.90
2018-10-05T15:18:31.983Z,22.10
2018-10-05T15:21:00.517Z,22.00
2018-10-05T15:23:29.066Z,22.10
2018-10-05T15:25:57.704Z,22.00
2018-10-05T15:28:26.393Z,21.90
2018-10-05T15:30:54.999Z,21.90
2018-10-05T15:33:23.605Z,21.90
2018-10-05T15:35:52.170Z,22.00
2018-10-05T15:38:20.701Z,22.10
2018-10-05T15:40:49.299Z,22.00
2018-10-05T15:43:17.880Z,22.00
2018-10-05T15:45:46.433Z,21.90
2018-10-05T15:48:14.979Z,21.70
2018-10-05T15:50:43.535Z,21.60
2018-10-05T15:53:12.334Z,21.50
2018-10-05T15:55:41.056Z,21.40
2018-10-05T15:58:09.647Z,21.40
2018-10-05T16:00:38.153Z,21.30
2018-10-05T16:03:06.990Z,21.50
2018-10-05T16:05:35.793Z,21.50
2018-10-05T16:08:04.326Z,21.40
2018-10-05T16:10:32.863Z,21.40
2018-10-05T16:13:01.587Z,21.30
2018-10-05T16:15:30.206Z,21.20
2018-10-05T16:17:58.752Z,20.90
2018-10-05T16:20:27.547Z,20.70
2018-10-05T16:22:56.234Z,20.60
2018-10-05T16:25:24.775Z,20.70
2018-10-05T16:27:53.283Z,20.50
2018-10-05T16:30:22.107Z,20.40
2018-10-05T16:32:50.734Z,20.10
2018-10-05T16:35:19.296Z,19.90
2018-10-05T16:37:48.599Z,19.60
2018-10-05T16:40:17.168Z,19.30
2018-10-05T16:42:45.711Z,19.00
2018-10-05T16:45:14.298Z,18.80
2018-10-05T16:47:42.839Z,18.80
2018-10-05T16:50:11.364Z,18.70
2018-10-05T16:52:40.118Z,18.60
2018-10-05T16:55:08.712Z,18.50
2018-10-05T16:57:37.455Z,18.50
2018-10-05T17:00:10.650Z,17.90
2018-10-05T17:02:39.318Z,17.70
2018-10-05T17:05:08.171Z,17.70
2018-10-05T17:07:36.927Z,17.60
2018-10-05T17:10:05.686Z,17.60
2018-10-05T17:12:34.198Z,17.50
2018-10-05T17:15:02.871Z,17.30
2018-10-05T17:17:31.597Z,17.20
2018-10-05T17:20:00.142Z,17.20
2018-10-05T17:22:28.966Z,17.30
2018-10-05T17:24:57.900Z,17.30
2018-10-05T17:27:26.443Z,17.30
2018-10-05T17:29:55.128Z,17.00
2018-10-05T17:32:23.729Z,16.80
2018-10-05T17:34:52.323Z,16.70
2018-10-05T17:37:20.881Z,16.60
2018-10-05T17:39:49.471Z,16.30
2018-10-05T17:42:18.108Z,16.00
2018-10-05T17:44:46.875Z,16.00
2018-10-05T17:47:15.681Z,15.70
2018-10-05T17:49:44.650Z,15.60
2018-10-05T17:52:13.428Z,15.70
2018-10-05T17:54:42.038Z,15.70
2018-10-05T17:57:10.630Z,15.60
2018-10-05T17:59:39.685Z,15.60
2018-10-05T18:02:08.512Z,15.50
2018-10-05T18:04:37.412Z,15.30
2018-10-05T18:07:06.156Z,15.30
2018-10-05T18:09:34.739Z,15.10
2018-10-05T18:12:03.575Z,14.80
2018-10-05T18:14:32.101Z,14.90
2018-10-05T18:17:00.746Z,15.00
2018-10-05T18:19:29.356Z,14.80
2018-10-05T18:21:57.986Z,14.80
2018-10-05T18:24:26.686Z,14.50
2018-10-05T18:26:55.586Z,14.20
2018-10-05T18:29:24.186Z,14.20
2018-10-05T18:31:52.911Z,14.40
2018-10-05T18:34:21.483Z,14.50
2018-10-05T18:36:50.058Z,14.40
2018-10-05T18:39:18.615Z,14.30
2018-10-05T18:41:47.184Z,14.40
2018-10-05T18:44:15.755Z,14.50
2018-10-05T18:46:44.540Z,14.60
2018-10-05T18:49:13.187Z,14.60
2018-10-05T18:51:41.960Z,14.50
2018-10-05T18:54:12.786Z,14.20
2018-10-05T18:56:52.625Z,14.20
2018-10-05T18:59:22.101Z,13.70
2018-10-05T19:01:51.082Z,13.80
2018-10-05T19:04:19.802Z,13.60
2018-10-05T19:06:48.462Z,13.50
2018-10-05T19:09:17.235Z,13.50
2018-10-05T19:11:45.839Z,13.40
2018-10-05T19:14:14.790Z,13.40
2018-10-05T19:16:43.401Z,13.40
2018-10-05T19:19:11.945Z,13.40
2018-10-05T19:21:40.869Z,13.30
2018-10-05T19:24:09.904Z,13.30
2018-10-05T19:26:39.004Z,13.30
2018-10-05T19:29:07.717Z,13.20
2018-10-05T19:31:36.279Z,13.10
2018-10-05T19:34:04.822Z,12.90
2018-10-05T19:36:33.759Z,13.00
2018-10-05T19:39:03.687Z,13.00
2018-10-05T19:41:32.449Z,13.00
2018-10-05T19:44:01.232Z,12.90
2018-10-05T19:46:30.152Z,12.90
2018-10-05T19:48:58.810Z,12.50
2018-10-05T19:51:27.404Z,12.60
2018-10-05T19:53:56.332Z,12.70
2018-10-05T19:56:25.569Z,12.70
2018-10-05T19:58:54.314Z,12.70
2018-10-05T20:01:23.608Z,12.60
2018-10-05T20:03:52.676Z,12.70
2018-10-05T20:06:21.808Z,12.70
2018-10-05T20:08:50.443Z,12.50
2018-10-05T20:11:19.247Z,12.50
2018-10-05T20:13:47.795Z,12.30
2018-10-05T20:16:16.502Z,12.20
2018-10-05T20:18:45.068Z,12.30
2018-10-05T20:21:13.829Z,12.30
2018-10-05T20:23:42.619Z,12.20
2018-10-05T20:26:11.241Z,12.10
2018-10-05T20:28:39.993Z,12.00
2018-10-05T20:31:08.580Z,12.10
2018-10-05T20:33:37.088Z,12.20
2018-10-05T20:36:13.213Z,12.10
2018-10-05T20:38:41.684Z,12.00
2018-10-05T20:41:10.221Z,11.80
2018-10-05T20:43:38.786Z,11.80
2018-10-05T20:46:07.509Z,11.80
2018-10-05T20:48:36.251Z,11.80
2018-10-05T20:51:04.945Z,11.70
2018-10-05T20:53:33.502Z,11.70
2018-10-05T20:56:02.171Z,11.90
2018-10-05T20:58:30.677Z,11.70
2018-10-05T21:00:59.228Z,11.60
2018-10-05T21:03:27.736Z,11.70
2018-10-05T21:05:56.440Z,11.60
2018-10-05T21:08:24.967Z,11.50
2018-10-05T21:10:53.591Z,11.40
2018-10-05T21:13:22.267Z,11.50
2018-10-05T21:15:51.063Z,11.40
2018-10-05T21:18:19.783Z,11.50
2018-10-05T21:20:48.357Z,11.40
2018-10-05T21:23:17.013Z,11.60
2018-10-05T21:25:45.598Z,11.40
2018-10-05T21:28:14.193Z,11.40
2018-10-05T21:30:42.814Z,11.30
2018-10-05T21:33:11.347Z,11.50
2018-10-05T21:35:39.969Z,11.40
2018-10-05T21:38:08.456Z,11.30
2018-10-05T21:40:37.232Z,11.20
2018-10-05T21:43:05.837Z,11.00
2018-10-05T21:45:34.372Z,11.30
2018-10-05T21:48:02.901Z,11.30
2018-10-05T21:50:31.372Z,11.20
2018-10-05T21:53:00.224Z,11.30
2018-10-05T21:55:29.004Z,11.10
2018-10-05T21:57:57.513Z,11.10
2018-10-05T22:00:30.967Z,11.20
2018-10-05T22:02:59.734Z,11.10
2018-10-05T22:05:28.252Z,11.10
2018-10-05T22:07:56.768Z,11.20
2018-10-05T22:10:25.391Z,11.20
2018-10-05T22:12:53.896Z,10.90
2018-10-05T22:15:22.498Z,11.00
2018-10-05T22:17:50.996Z,11.10
2018-10-05T22:20:19.491Z,11.00
2018-10-05T22:22:48.175Z,11.00
2018-10-05T22:25:16.792Z,10.80
2018-10-05T22:27:45.392Z,10.80
2018-10-05T22:30:14.007Z,11.00
2018-10-05T22:32:42.667Z,11.10
2018-10-05T22:35:11.393Z,10.90
2018-10-05T22:37:41.075Z,10.80
2018-10-05T22:40:09.743Z,10.90
2018-10-05T22:42:38.427Z,10.70
2018-10-05T22:45:11.483Z,10.80
2018-10-05T22:47:40.056Z,10.80
2018-10-05T22:50:08.619Z,10.70
2018-10-05T22:52:37.476Z,10.50
2018-10-05T22:55:06.643Z,10.50
2018-10-05T22:57:35.352Z,10.70
2018-10-05T23:00:08.954Z,10.70
2018-10-05T23:02:37.633Z,10.80
2018-10-05T23:05:06.507Z,10.90
2018-10-05T23:07:35.079Z,10.60
2018-10-05T23:10:03.772Z,10.60
2018-10-05T23:12:32.482Z,10.50
2018-10-05T23:15:02.834Z,10.40
2018-10-05T23:17:31.602Z,10.30
2018-10-05T23:20:00.464Z,10.40
2018-10-05T23:22:29.174Z,10.50
2018-10-05T23:24:57.734Z,10.30
2018-10-05T23:27:26.807Z,10.20
2018-10-05T23:29:55.292Z,10.30
2018-10-05T23:32:24.022Z,10.30
2018-10-05T23:34:52.664Z,10.50
2018-10-05T23:37:21.168Z,10.30
2018-10-05T23:39:49.709Z,10.30
2018-10-05T23:42:18.252Z,10.30
2018-10-05T23:44:46.774Z,10.10
2018-10-05T23:47:15.380Z,10.20
2018-10-05T23:49:44.236Z,10.10
2018-10-05T23:52:24.086Z,10.10
2018-10-05T23:54:52.609Z,10.20
2018-10-05T23:57:21.130Z,10.40
2018-10-05T23:59:49.640Z,10.40
